Latest Weather Observations for Gosford

IDN60801

Issued at 9:42 pm EST Wednesday 19 September 2018 (issued every 10 minutes, with the page automatically refreshed every 10 minutes)

About weather observations | Map of weather stations | Latest weather observations for NSW | Other Formats
Station Details ID: 061425 Name: GOSFORD AWS Lat: -33.44 Lon: 151.36 Height: 7.0 m
Data from the previous 72 hours. | See also: Recent months at Gosford
Date/Time
EST
Temp
°C
App
Temp
°C
Dew
Point
°C
Rel
Hum
%
Delta-T
°C
Wind Press
QNH
hPa
Press
MSL
hPa
Rain since
9am
mm
Dir  Spd
km/h
Gust
km/h
Spd
kts
Gust
kts
19/09:30pm 15.7 12.2 10.2 70 2.9 SSW 19 32 10 17 - - 0.0
19/09:00pm 16.1 11.9 11.1 72 2.7 S 24 46 13 25 - - 0.0
19/08:45pm 16.2 10.8 10.9 71 2.8 S 30 48 16 26 - - 0.0
19/08:30pm 16.4 13.1 11.6 73 2.6 S 20 43 11 23 - - 0.0
19/08:00pm 17.3 13.7 11.8 70 3.0 S 22 43 12 23 - - 0.0
19/07:30pm 20.7 17.1 5.1 36 7.7 SSW 13 22 7 12 - - 0.0
19/07:00pm 21.3 18.0 4.8 34 8.1 SSW 11 15 6 8 - - 0.0
19/06:30pm 22.1 18.6 -2.6 19 10.5 NW 6 11 3 6 - - 0.0
19/06:00pm 24.1 19.1 -4.1 15 11.9 WNW 13 19 7 10 - - 0.0
19/05:30pm 24.9 17.7 -5.4 13 12.6 WNW 24 43 13 23 - - 0.0
19/05:00pm 25.9 19.3 -3.6 14 12.8 WNW 22 32 12 17 - - 0.0
19/04:30pm 26.5 18.8 -3.1 14 13.0 WNW 28 46 15 25 - - 0.0
19/04:00pm 27.0 18.1 -4.8 12 13.6 WNW 33 54 18 29 - - 0.0
19/03:30pm 27.7 19.5 -4.3 12 13.9 WNW 30 56 16 30 - - 0.0
19/03:00pm 28.0 19.3 -5.2 11 14.2 WNW 32 63 17 34 - - 0.0
19/02:30pm 28.5 20.4 -0.6 15 13.6 WNW 32 54 17 29 - - 0.0
19/02:21pm 28.3 20.9 -0.8 15 13.5 WNW 28 54 15 29 - - 0.0
19/02:00pm 28.0 21.1 -0.1 16 13.2 WNW 26 46 14 25 - - 0.0
19/01:30pm 28.2 22.0 2.4 19 12.7 WNW 24 48 13 26 - - 0.0
19/01:12pm 27.8 20.6 0.5 17 12.9 NW 28 54 15 29 - - 0.0
19/01:00pm 27.9 22.8 2.9 20 12.4 NW 19 35 10 19 - - 0.0
19/12:30pm 27.0 21.1 1.4 19 12.3 NW 22 39 12 21 - - 0.0
19/12:00pm 26.3 22.2 4.1 24 11.1 NW 15 22 8 12 - - 0.0
19/11:30am 26.4 22.9 5.4 26 10.8 WNW 13 22 7 12 - - 0.0
19/11:00am 26.3 22.8 7.4 30 10.0 W 15 24 8 13 - - 0.0
19/10:30am 25.3 22.5 7.0 31 9.6 WNW 11 20 6 11 - - 0.0
19/10:00am 25.5 22.3 8.5 34 9.2 NW 15 28 8 15 - - 0.0
19/09:30am 24.1 23.1 8.9 38 8.2 NNE 4 13 2 7 - - 0.0
19/09:00am 23.3 21.9 9.0 40 7.7 NNE 6 7 3 4 - - 0.0
19/08:30am 21.5 20.3 9.4 46 6.5 ENE 6 11 3 6 - - 0.0
19/08:00am 17.6 18.0 11.4 67 3.4 CALM 0 0 0 0 - - 0.0
19/07:30am 14.9 14.8 10.9 77 2.1 SW 2 4 1 2 - - 0.0
19/07:00am 13.1 13.2 10.1 82 1.5 CALM 0 0 0 0 - - 0.0
19/06:30am 10.3 10.1 8.9 91 0.7 CALM 0 0 0 0 - - 0.0
19/06:00am 9.9 9.6 8.5 91 0.7 CALM 0 0 0 0 - - 0.0
19/05:30am 10.1 9.4 8.5 90 0.8 SSE 2 4 1 2 - - 0.0
19/05:00am 10.6 10.3 8.7 88 0.9 CALM 0 2 0 1 - - 0.0
19/04:30am 10.9 10.6 8.5 85 1.2 CALM 0 0 0 0 - - 0.0
19/04:00am 11.8 11.5 8.6 81 1.6 CALM 0 0 0 0 - - 0.0
19/03:30am 13.1 12.9 9.0 76 2.1 CALM 0 4 0 2 - - 0.0
19/03:00am 14.9 13.7 9.7 71 2.7 NNE 6 9 3 5 - - 0.0
19/02:30am 15.7 14.4 9.1 65 3.4 N 6 11 3 6 - - 0.0
19/02:00am 15.9 14.4 9.3 65 3.4 N 7 11 4 6 - - 0.0
19/01:30am 16.6 15.4 9.5 63 3.7 N 6 11 3 6 - - 0.0
19/01:00am 16.8 15.4 9.7 63 3.7 N 7 15 4 8 - - 0.0
19/12:30am 14.9 13.6 9.1 68 3.0 NNE 6 13 3 7 - - 0.0
19/12:00am 15.6 15.3 8.8 64 3.5 CALM 0 6 0 3 - - 0.0
 
Date/Time
EST
Temp
°C
App
Temp
°C
Dew
Point
°C
Rel
Hum
%
Delta-T
°C
Wind Press
QNH
hPa
Press
MSL
hPa
Rain since
9am
mm
Dir  Spd
km/h
Gust
km/h
Spd
kts
Gust
kts
18/11:30pm 16.9 15.5 8.8 59 4.2 NNE 6 11 3 6 - - 0.0
18/11:00pm 17.5 16.0 8.4 55 4.7 NNE 6 9 3 5 - - 0.0
18/10:30pm 18.3 16.3 8.6 53 5.0 N 9 17 5 9 - - 0.0
18/10:00pm 18.9 16.8 8.3 50 5.5 N 9 17 5 9 - - 0.0
18/09:30pm 18.9 16.8 8.3 50 5.5 NNE 9 20 5 11 - - 0.0
18/09:00pm 19.1 17.0 8.1 49 5.7 N 9 17 5 9 - - 0.0
18/08:30pm 19.0 17.0 8.6 51 5.4 NNE 9 24 5 13 - - 0.0
18/08:00pm 19.3 16.6 8.9 51 5.4 NNE 13 22 7 12 - - 0.0
18/07:30pm 19.2 17.2 8.8 51 5.4 NNE 9 17 5 9 - - 0.0
18/07:00pm 19.4 16.4 7.8 47 5.9 NNE 13 20 7 11 - - 0.0
18/06:30pm 19.1 16.7 7.2 46 6.0 N 9 17 5 9 - - 0.0
18/06:00pm 19.4 16.9 8.4 49 5.7 NNE 11 20 6 11 - - 0.0
18/05:30pm 19.7 16.6 8.7 49 5.7 NNE 15 26 8 14 - - 0.0
18/05:00pm 20.0 15.9 8.0 46 6.2 NNE 19 32 10 17 - - 0.0
18/04:30pm 20.7 17.5 8.4 45 6.4 NE 15 28 8 15 - - 0.0
18/04:00pm 21.4 19.3 11.1 52 5.7 ENE 13 26 7 14 - - 0.0
18/03:30pm 21.7 19.6 12.3 55 5.3 ENE 15 22 8 12 - - 0.0
18/03:00pm 21.8 18.8 12.1 54 5.5 ENE 19 24 10 13 - - 0.0
18/02:30pm 22.1 20.1 11.5 51 5.9 E 13 20 7 11 - - 0.0
18/02:00pm 22.0 19.5 11.1 50 6.0 E 15 22 8 12 - - 0.0
18/01:30pm 22.1 19.1 10.6 48 6.3 ESE 17 26 9 14 - - 0.0
18/01:00pm 22.1 19.0 10.3 47 6.4 E 17 24 9 13 - - 0.0
18/12:30pm 22.9 20.3 9.3 42 7.3 N 13 28 7 15 - - 0.0
18/12:00pm 23.8 21.1 5.7 31 9.2 WNW 9 17 5 9 - - 0.0
18/11:30am 22.9 18.9 4.9 31 8.9 NW 15 32 8 17 - - 0.0
18/11:00am 22.7 20.2 4.7 31 8.9 NNW 7 20 4 11 - - 0.0
18/10:30am 22.2 21.4 9.7 45 6.8 N 4 11 2 6 - - 0.0
18/10:00am 19.7 17.3 7.1 44 6.4 ENE 9 13 5 7 - - 0.0
18/09:30am 18.1 16.3 8.1 52 5.1 NE 7 11 4 6 - - 0.0
18/09:00am 16.4 16.0 8.4 59 4.1 CALM 0 6 0 3 - - 0.0
18/08:30am 14.2 13.3 7.7 65 3.2 SSE 2 6 1 3 - - 0.0
18/08:00am 13.0 12.4 7.5 69 2.7 CALM 0 4 0 2 - - 0.0
18/07:30am 11.6 11.1 7.9 78 1.8 CALM 0 0 0 0 - - 0.0
18/07:00am 10.0 9.5 7.8 86 1.1 CALM 0 0 0 0 - - 0.0
18/06:30am 7.5 6.6 6.1 91 0.6 CALM 0 0 0 0 - - 0.0
18/06:00am 7.2 6.2 5.8 91 0.6 CALM 0 2 0 1 - - 0.0
18/05:30am 8.0 6.3 6.1 88 0.9 NNW 4 7 2 4 - - 0.0
18/05:00am 7.8 6.9 5.9 88 0.9 CALM 0 0 0 0 - - 0.0
18/04:30am 8.5 7.7 6.3 86 1.0 CALM 0 0 0 0 - - 0.0
18/04:00am 9.6 8.7 6.1 79 1.6 CALM 0 2 0 1 - - 0.0
18/03:30am 11.0 9.5 6.6 74 2.1 NE 4 6 2 3 - - 0.0
18/03:00am 12.1 10.2 6.8 70 2.5 NNE 6 13 3 7 - - 0.0
18/02:30am 12.4 10.4 7.1 70 2.6 NNE 7 17 4 9 - - 0.0
18/02:00am 12.6 10.8 7.1 69 2.7 NNE 6 20 3 11 - - 0.0
18/01:30am 12.7 10.3 7.2 69 2.7 NNE 9 20 5 11 - - 0.0
18/01:00am 12.7 10.8 7.4 70 2.6 NNE 7 13 4 7 - - 0.0
18/12:30am 13.0 11.1 7.7 70 2.6 NNE 7 19 4 10 - - 0.0
18/12:00am 13.0 10.7 7.5 69 2.7 NNE 9 15 5 8 - - 0.0
 
Date/Time
EST
Temp
°C
App
Temp
°C
Dew
Point
°C
Rel
Hum
%
Delta-T
°C
Wind Press
QNH
hPa
Press
MSL
hPa
Rain since
9am
mm
Dir  Spd
km/h
Gust
km/h
Spd
kts
Gust
kts
17/11:30pm 13.1 11.2 7.5 69 2.7 NNE 7 20 4 11 - - 0.0
17/11:00pm 12.9 11.2 7.6 70 2.6 NNE 6 13 3 7 - - 0.0
17/10:30pm 13.0 11.4 7.9 71 2.5 NNE 6 15 3 8 - - 0.0
17/10:00pm 13.0 11.4 7.9 71 2.5 NNE 6 9 3 5 - - 0.0
17/09:30pm 13.2 11.4 8.1 71 2.5 NNE 7 13 4 7 - - 0.0
17/09:00pm 13.8 12.2 8.2 69 2.8 NNE 6 11 3 6 - - 0.0
17/08:30pm 14.0 11.9 8.2 68 2.9 NE 9 20 5 11 - - 0.0
17/08:00pm 14.0 12.4 8.8 71 2.6 NNE 7 13 4 7 - - 0.0
17/07:30pm 14.1 12.4 8.3 68 2.9 NNE 7 17 4 9 - - 0.0
17/07:00pm 14.2 12.0 7.9 66 3.1 NE 9 17 5 9 - - 0.0
17/06:30pm 13.9 11.9 7.2 64 3.3 NE 7 13 4 7 - - 0.0
17/06:00pm 14.2 11.9 5.8 57 4.0 NE 7 13 4 7 - - 0.0
17/05:30pm 14.9 11.8 5.4 53 4.5 ENE 11 19 6 10 - - 0.0
17/05:00pm 15.7 12.7 5.9 52 4.7 NE 11 19 6 10 - - 0.0
17/04:30pm 16.0 12.7 6.4 53 4.7 ENE 13 22 7 12 - - 0.0
17/04:00pm 16.4 13.1 6.2 51 5.0 NE 13 20 7 11 - - 0.0
17/03:30pm 16.5 13.2 6.6 52 4.9 E 13 24 7 13 - - 0.0
17/03:00pm 16.5 12.8 6.3 51 5.0 ENE 15 26 8 14 - - 0.0
17/02:30pm 16.4 12.7 6.2 51 5.0 ESE 15 22 8 12 - - 0.0
17/02:00pm 16.7 13.5 6.8 52 4.9 E 13 20 7 11 - - 0.0
17/01:30pm 16.8 13.6 6.9 52 4.9 E 13 22 7 12 - - 0.0
17/01:00pm 16.4 13.1 6.2 51 5.0 E 13 22 7 12 - - 0.0
17/12:30pm 16.1 12.5 5.1 48 5.2 E 13 20 7 11 - - 0.0
17/12:00pm 16.2 13.9 5.5 49 5.1 NE 7 13 4 7 - - 0.0
17/11:30am 15.9 13.6 5.5 50 5.0 ESE 7 13 4 7 - - 0.0
17/11:00am 16.2 14.5 6.1 51 4.9 SSW 4 7 2 4 - - 0.0
17/10:30am 15.9 13.7 5.2 49 5.1 S 6 9 3 5 - - 0.0
17/10:00am 15.1 12.8 5.0 51 4.7 SW 6 9 3 5 - - 0.0
17/09:30am 14.2 11.9 5.0 54 4.3 SW 6 9 3 5 - - 0.0
17/09:00am 13.6 11.3 5.0 56 4.0 W 6 7 3 4 - - 0.0
17/08:30am 12.7 10.2 4.7 58 3.7 WNW 7 9 4 5 - - 0.0
17/08:00am 11.7 8.7 4.2 60 3.4 W 9 13 5 7 - - 0.0
17/07:30am 10.7 8.0 3.5 61 3.2 W 7 11 4 6 - - 0.0
17/07:00am 9.4 6.8 4.0 69 2.4 WNW 7 9 4 5 - - 0.0
17/06:30am 5.8 4.0 3.5 85 1.0 WNW 2 4 1 2 - - 0.0
17/06:00am 5.7 3.9 3.2 84 1.0 WNW 2 6 1 3 - - 0.0
17/05:30am 5.4 4.1 3.9 90 0.6 CALM 0 0 0 0 - - 0.0
17/05:00am 5.5 4.1 3.3 86 0.9 CALM 0 0 0 0 - - 0.0
17/04:30am 5.8 4.4 3.6 86 0.9 CALM 0 0 0 0 - - 0.0
17/04:00am 6.0 4.6 3.5 84 1.0 CALM 0 0 0 0 - - 0.0
17/03:30am 6.6 5.3 3.9 83 1.2 CALM 0 0 0 0 - - 0.0
17/03:00am 7.3 5.8 3.2 75 1.7 CALM 0 2 0 1 - - 0.0
17/02:30am 9.2 7.3 2.8 64 2.7 WNW 2 6 1 3 - - 0.0
17/02:00am 8.6 6.3 2.8 67 2.5 NW 4 6 2 3 - - 0.0
17/01:30am 9.0 6.4 3.2 67 2.5 WNW 6 9 3 5 - - 0.0
17/01:00am 9.1 7.0 3.7 69 2.3 WNW 4 6 2 3 - - 0.0
17/12:30am 9.7 7.9 3.7 66 2.6 WNW 2 6 1 3 - - 0.0
17/12:00am 9.9 7.5 4.1 67 2.6 WNW 6 9 3 5 - - 0.0
 
Date/Time
EST
Temp
°C
App
Temp
°C
Dew
Point
°C
Rel
Hum
%
Delta-T
°C
Wind Press
QNH
hPa
Press
MSL
hPa
Rain since
9am
mm
Dir  Spd
km/h
Gust
km/h
Spd
kts
Gust
kts
16/11:30pm 10.3 8.5 5.3 71 2.3 WNW 4 7 2 4 - - 0.0
16/11:00pm 9.1 7.8 4.3 72 2.1 CALM 0 4 0 2 - - 0.0
16/10:30pm 9.4 7.7 4.0 69 2.4 NW 2 7 1 4 - - 0.0
16/10:00pm 9.5 7.8 3.9 68 2.5 N 2 4 1 2 - - 0.0

Other Formats:

Comma delimited format used in spreadsheet applications
http://www.bom.gov.au/fwo/IDN60801/IDN60801.94782.axf

JavaScript Object Notation format (JSON) in row-major order
http://www.bom.gov.au/fwo/IDN60801/IDN60801.94782.json